sensor_id;sensor_type;location;lat;lon;timestamp;temperature;humidity
947;DHT22;460;48.734;9.152;2023-02-15T00:01:56;0.80;99.90
947;DHT22;460;48.734;9.152;2023-02-15T00:04:25;0.90;99.90
947;DHT22;460;48.734;9.152;2023-02-15T00:07:14;0.90;99.90
947;DHT22;460;48.734;9.152;2023-02-15T00:09:41;0.90;99.90
947;DHT22;460;48.734;9.152;2023-02-15T00:12:08;0.90;99.90
947;DHT22;460;48.734;9.152;2023-02-15T00:14:35;0.90;99.90
947;DHT22;460;48.734;9.152;2023-02-15T00:17:02;0.90;99.90
947;DHT22;460;48.734;9.152;2023-02-15T00:19:29;1.00;99.90
947;DHT22;460;48.734;9.152;2023-02-15T00:21:56;1.00;99.90
947;DHT22;460;48.734;9.152;2023-02-15T00:24:24;1.00;99.90
947;DHT22;460;48.734;9.152;2023-02-15T00:26:51;1.00;99.90
947;DHT22;460;48.734;9.152;2023-02-15T00:29:19;0.90;99.90
947;DHT22;460;48.734;9.152;2023-02-15T00:31:46;1.00;99.90
947;DHT22;460;48.734;9.152;2023-02-15T00:34:15;0.90;99.90
947;DHT22;460;48.734;9.152;2023-02-15T00:36:42;0.90;99.90
947;DHT22;460;48.734;9.152;2023-02-15T00:39:09;0.90;99.90
947;DHT22;460;48.734;9.152;2023-02-15T00:41:37;0.90;99.90
947;DHT22;460;48.734;9.152;2023-02-15T00:44:05;0.90;99.90
947;DHT22;460;48.734;9.152;2023-02-15T00:46:32;0.90;99.90
947;DHT22;460;48.734;9.152;2023-02-15T00:48:59;0.90;99.90
947;DHT22;460;48.734;9.152;2023-02-15T00:51:26;0.90;99.90
947;DHT22;460;48.734;9.152;2023-02-15T00:53:53;0.80;99.90
947;DHT22;460;48.734;9.152;2023-02-15T00:56:20;0.80;99.90
947;DHT22;460;48.734;9.152;2023-02-15T00:58:48;0.90;99.90
947;DHT22;460;48.734;9.152;2023-02-15T01:01:17;0.90;99.90
947;DHT22;460;48.734;9.152;2023-02-15T01:03:44;0.90;99.90
947;DHT22;460;48.734;9.152;2023-02-15T01:06:12;0.80;99.90
947;DHT22;460;48.734;9.152;2023-02-15T01:08:39;0.70;99.90
947;DHT22;460;48.734;9.152;2023-02-15T01:11:09;0.70;99.90
947;DHT22;460;48.734;9.152;2023-02-15T01:13:36;0.70;99.90
947;DHT22;460;48.734;9.152;2023-02-15T01:16:04;0.60;99.90
947;DHT22;460;48.734;9.152;2023-02-15T01:18:32;0.60;99.90
947;DHT22;460;48.734;9.152;2023-02-15T01:20:59;0.60;99.90
947;DHT22;460;48.734;9.152;2023-02-15T01:23:26;0.60;99.90
947;DHT22;460;48.734;9.152;2023-02-15T01:25:53;0.50;99.90
947;DHT22;460;48.734;9.152;2023-02-15T01:28:19;0.50;99.90
947;DHT22;460;48.734;9.152;2023-02-15T01:30:46;0.50;99.90
947;DHT22;460;48.734;9.152;2023-02-15T01:33:14;0.40;99.90
947;DHT22;460;48.734;9.152;2023-02-15T01:35:44;0.40;99.90
947;DHT22;460;48.734;9.152;2023-02-15T01:38:13;0.30;99.90
947;DHT22;460;48.734;9.152;2023-02-15T01:40:40;0.30;99.90
947;DHT22;460;48.734;9.152;2023-02-15T01:43:10;0.30;99.90
947;DHT22;460;48.734;9.152;2023-02-15T01:45:37;0.30;99.90
947;DHT22;460;48.734;9.152;2023-02-15T01:48:06;0.20;99.90
947;DHT22;460;48.734;9.152;2023-02-15T01:50:59;0.90;99.90
947;DHT22;460;48.734;9.152;2023-02-15T01:53:31;0.30;99.90
947;DHT22;460;48.734;9.152;2023-02-15T01:56:13;0.30;99.90
947;DHT22;460;48.734;9.152;2023-02-15T01:58:42;0.30;99.90
947;DHT22;460;48.734;9.152;2023-02-15T02:01:11;0.30;99.90
947;DHT22;460;48.734;9.152;2023-02-15T02:03:44;0.30;99.90
947;DHT22;460;48.734;9.152;2023-02-15T02:06:17;0.20;99.90
947;DHT22;460;48.734;9.152;2023-02-15T02:08:44;0.20;99.90
947;DHT22;460;48.734;9.152;2023-02-15T02:11:14;0.20;99.90
947;DHT22;460;48.734;9.152;2023-02-15T02:13:42;0.20;99.90
947;DHT22;460;48.734;9.152;2023-02-15T02:16:15;0.30;99.90
947;DHT22;460;48.734;9.152;2023-02-15T02:18:53;0.30;99.90
947;DHT22;460;48.734;9.152;2023-02-15T02:21:40;0.40;99.90
947;DHT22;460;48.734;9.152;2023-02-15T02:27:29;0.30;99.90
947;DHT22;460;48.734;9.152;2023-02-15T02:33:33;0.30;99.90
947;DHT22;460;48.734;9.152;2023-02-15T02:36:13;0.30;99.90
947;DHT22;460;48.734;9.152;2023-02-15T02:38:51;0.40;99.90
947;DHT22;460;48.734;9.152;2023-02-15T02:41:25;0.40;99.90
947;DHT22;460;48.734;9.152;2023-02-15T02:44:02;0.30;99.90
947;DHT22;460;48.734;9.152;2023-02-15T02:46:37;0.40;99.90
947;DHT22;460;48.734;9.152;2023-02-15T02:49:06;0.30;99.90
947;DHT22;460;48.734;9.152;2023-02-15T02:51:34;0.20;99.90
947;DHT22;460;48.734;9.152;2023-02-15T02:54:05;0.20;99.90
947;DHT22;460;48.734;9.152;2023-02-15T02:56:37;0.10;99.90
947;DHT22;460;48.734;9.152;2023-02-15T02:59:10;0.00;99.90
947;DHT22;460;48.734;9.152;2023-02-15T03:01:42;0.00;99.90
947;DHT22;460;48.734;9.152;2023-02-15T03:04:14;0.00;99.90
947;DHT22;460;48.734;9.152;2023-02-15T03:06:44;-0.10;99.90
947;DHT22;460;48.734;9.152;2023-02-15T03:09:17;-0.10;99.90
947;DHT22;460;48.734;9.152;2023-02-15T03:11:47;-0.10;99.90
947;DHT22;460;48.734;9.152;2023-02-15T03:14:17;0.00;99.90
947;DHT22;460;48.734;9.152;2023-02-15T03:16:47;0.00;99.90
947;DHT22;460;48.734;9.152;2023-02-15T03:19:19;-0.10;99.90
947;DHT22;460;48.734;9.152;2023-02-15T03:21:50;-0.10;99.90
947;DHT22;460;48.734;9.152;2023-02-15T03:24:32;-0.10;99.90
947;DHT22;460;48.734;9.152;2023-02-15T03:27:02;-0.20;99.90
947;DHT22;460;48.734;9.152;2023-02-15T03:29:32;-0.20;99.90
947;DHT22;460;48.734;9.152;2023-02-15T03:32:02;-0.20;99.90
947;DHT22;460;48.734;9.152;2023-02-15T03:34:32;-0.10;99.90
947;DHT22;460;48.734;9.152;2023-02-15T03:37:04;-0.10;99.90
947;DHT22;460;48.734;9.152;2023-02-15T03:39:35;-0.10;99.90
947;DHT22;460;48.734;9.152;2023-02-15T03:42:08;0.00;99.90
947;DHT22;460;48.734;9.152;2023-02-15T03:44:46;0.00;99.90
947;DHT22;460;48.734;9.152;2023-02-15T03:47:18;0.00;99.90
947;DHT22;460;48.734;9.152;2023-02-15T03:49:53;0.00;99.90
947;DHT22;460;48.734;9.152;2023-02-15T03:52:21;0.00;99.90
947;DHT22;460;48.734;9.152;2023-02-15T03:54:53;0.00;99.90
947;DHT22;460;48.734;9.152;2023-02-15T03:57:23;0.00;99.90
947;DHT22;460;48.734;9.152;2023-02-15T04:00:13;0.00;99.90
947;DHT22;460;48.734;9.152;2023-02-15T04:03:09;0.00;99.90
947;DHT22;460;48.734;9.152;2023-02-15T04:05:41;-0.10;99.90
947;DHT22;460;48.734;9.152;2023-02-15T04:08:09;-0.10;99.90
947;DHT22;460;48.734;9.152;2023-02-15T04:10:37;-0.10;99.90
947;DHT22;460;48.734;9.152;2023-02-15T04:13:17;-0.10;99.90
947;DHT22;460;48.734;9.152;2023-02-15T04:15:44;-0.10;99.90
947;DHT22;460;48.734;9.152;2023-02-15T04:18:28;-0.10;99.90
947;DHT22;460;48.734;9.152;2023-02-15T04:21:14;-0.10;99.90
947;DHT22;460;48.734;9.152;2023-02-15T04:23:58;-0.20;99.90
947;DHT22;460;48.734;9.152;2023-02-15T04:26:43;-0.20;99.90
947;DHT22;460;48.734;9.152;2023-02-15T04:29:10;-0.30;99.90
947;DHT22;460;48.734;9.152;2023-02-15T04:31:36;-0.30;99.90
947;DHT22;460;48.734;9.152;2023-02-15T04:34:03;-0.30;99.90
947;DHT22;460;48.734;9.152;2023-02-15T04:36:31;-0.40;99.90
947;DHT22;460;48.734;9.152;2023-02-15T04:38:58;-0.30;99.90
947;DHT22;460;48.734;9.152;2023-02-15T04:41:25;-0.40;99.90
947;DHT22;460;48.734;9.152;2023-02-15T04:43:52;-0.30;99.90
947;DHT22;460;48.734;9.152;2023-02-15T04:46:18;-0.30;99.90
947;DHT22;460;48.734;9.152;2023-02-15T04:48:45;-0.30;99.90
947;DHT22;460;48.734;9.152;2023-02-15T04:51:12;-0.30;99.90
947;DHT22;460;48.734;9.152;2023-02-15T04:53:40;-0.40;99.90
947;DHT22;460;48.734;9.152;2023-02-15T04:56:07;-0.40;99.90
947;DHT22;460;48.734;9.152;2023-02-15T04:58:34;-0.30;99.90
947;DHT22;460;48.734;9.152;2023-02-15T05:01:02;-0.30;99.90
947;DHT22;460;48.734;9.152;2023-02-15T05:03:29;-0.30;99.90
947;DHT22;460;48.734;9.152;2023-02-15T05:05:56;-0.30;99.90
947;DHT22;460;48.734;9.152;2023-02-15T05:08:23;-0.30;99.90
947;DHT22;460;48.734;9.152;2023-02-15T05:10:51;-0.30;99.90
947;DHT22;460;48.734;9.152;2023-02-15T05:13:18;-0.30;99.90
947;DHT22;460;48.734;9.152;2023-02-15T05:15:47;-0.30;99.90
947;DHT22;460;48.734;9.152;2023-02-15T05:18:14;-0.50;99.90
947;DHT22;460;48.734;9.152;2023-02-15T05:20:41;-0.50;99.90
947;DHT22;460;48.734;9.152;2023-02-15T05:23:08;-0.60;99.90
947;DHT22;460;48.734;9.152;2023-02-15T05:25:35;-0.60;99.90
947;DHT22;460;48.734;9.152;2023-02-15T05:28:21;-0.60;99.90
947;DHT22;460;48.734;9.152;2023-02-15T05:30:50;-0.50;99.90
947;DHT22;460;48.734;9.152;2023-02-15T05:33:17;-0.50;99.90
947;DHT22;460;48.734;9.152;2023-02-15T05:35:44;-0.60;99.90
947;DHT22;460;48.734;9.152;2023-02-15T05:38:11;-0.60;99.90
947;DHT22;460;48.734;9.152;2023-02-15T05:40:37;-0.60;99.90
947;DHT22;460;48.734;9.152;2023-02-15T05:43:04;-0.70;99.90
947;DHT22;460;48.734;9.152;2023-02-15T05:45:32;-0.60;99.90
947;DHT22;460;48.734;9.152;2023-02-15T05:47:59;-0.60;99.90
947;DHT22;460;48.734;9.152;2023-02-15T05:50:26;-0.70;99.90
947;DHT22;460;48.734;9.152;2023-02-15T05:52:53;-0.70;99.90
947;DHT22;460;48.734;9.152;2023-02-15T05:55:20;-0.70;99.90
947;DHT22;460;48.734;9.152;2023-02-15T05:57:46;-0.60;99.90
947;DHT22;460;48.734;9.152;2023-02-15T06:00:14;-0.50;99.90
947;DHT22;460;48.734;9.152;2023-02-15T06:02:42;-0.50;99.90
947;DHT22;460;48.734;9.152;2023-02-15T06:05:09;-0.60;99.90
947;DHT22;460;48.734;9.152;2023-02-15T06:07:36;-0.50;99.90
947;DHT22;460;48.734;9.152;2023-02-15T06:10:03;-0.50;99.90
947;DHT22;460;48.734;9.152;2023-02-15T06:12:30;-0.50;99.90
947;DHT22;460;48.734;9.152;2023-02-15T06:14:57;-0.60;99.90
947;DHT22;460;48.734;9.152;2023-02-15T06:17:24;-0.50;99.90
947;DHT22;460;48.734;9.152;2023-02-15T06:19:52;-0.60;99.90
947;DHT22;460;48.734;9.152;2023-02-15T06:22:19;-0.60;99.90
947;DHT22;460;48.734;9.152;2023-02-15T06:24:46;-0.60;99.90
947;DHT22;460;48.734;9.152;2023-02-15T06:27:12;-0.70;99.90
947;DHT22;460;48.734;9.152;2023-02-15T06:29:39;-0.70;99.90
947;DHT22;460;48.734;9.152;2023-02-15T06:32:06;-0.70;99.90
947;DHT22;460;48.734;9.152;2023-02-15T06:34:33;-0.70;99.90
947;DHT22;460;48.734;9.152;2023-02-15T06:37:01;-0.10;99.90
947;DHT22;460;48.734;9.152;2023-02-15T06:39:28;-0.60;99.90
947;DHT22;460;48.734;9.152;2023-02-15T06:41:54;-0.60;99.90
947;DHT22;460;48.734;9.152;2023-02-15T06:44:21;-0.60;99.90
947;DHT22;460;48.734;9.152;2023-02-15T06:46:48;-0.50;99.90
947;DHT22;460;48.734;9.152;2023-02-15T06:49:15;-0.50;99.90
947;DHT22;460;48.734;9.152;2023-02-15T06:51:42;-0.50;99.90
947;DHT22;460;48.734;9.152;2023-02-15T06:54:10;-0.50;99.90
947;DHT22;460;48.734;9.152;2023-02-15T06:56:37;-0.50;99.90
947;DHT22;460;48.734;9.152;2023-02-15T06:59:04;-0.50;99.90
947;DHT22;460;48.734;9.152;2023-02-15T07:01:30;-0.50;99.90
947;DHT22;460;48.734;9.152;2023-02-15T07:03:57;-0.50;99.90
947;DHT22;460;48.734;9.152;2023-02-15T07:06:24;-0.40;99.90
947;DHT22;460;48.734;9.152;2023-02-15T07:08:51;-0.40;99.90
947;DHT22;460;48.734;9.152;2023-02-15T07:11:19;-0.40;99.90
947;DHT22;460;48.734;9.152;2023-02-15T07:14:04;-0.30;99.90
947;DHT22;460;48.734;9.152;2023-02-15T07:16:30;-0.30;99.90
947;DHT22;460;48.734;9.152;2023-02-15T07:18:57;-0.20;99.90
947;DHT22;460;48.734;9.152;2023-02-15T07:21:24;-0.20;99.90
947;DHT22;460;48.734;9.152;2023-02-15T07:23:51;-0.20;99.90
947;DHT22;460;48.734;9.152;2023-02-15T07:26:19;-0.10;99.90
947;DHT22;460;48.734;9.152;2023-02-15T07:28:46;0.00;99.90
947;DHT22;460;48.734;9.152;2023-02-15T07:31:13;0.10;99.90
947;DHT22;460;48.734;9.152;2023-02-15T07:33:40;0.20;99.90
947;DHT22;460;48.734;9.152;2023-02-15T07:36:07;0.30;99.90
947;DHT22;460;48.734;9.152;2023-02-15T07:38:38;0.30;99.90
947;DHT22;460;48.734;9.152;2023-02-15T07:41:06;0.40;99.90
947;DHT22;460;48.734;9.152;2023-02-15T07:43:37;0.40;99.90
947;DHT22;460;48.734;9.152;2023-02-15T07:46:05;0.50;99.90
947;DHT22;460;48.734;9.152;2023-02-15T07:48:33;0.60;99.90
947;DHT22;460;48.734;9.152;2023-02-15T07:51:01;0.70;99.90
947;DHT22;460;48.734;9.152;2023-02-15T07:53:28;0.70;99.90
947;DHT22;460;48.734;9.152;2023-02-15T07:55:58;0.80;99.90
947;DHT22;460;48.734;9.152;2023-02-15T07:58:25;0.80;99.90
947;DHT22;460;48.734;9.152;2023-02-15T08:01:13;0.90;99.90
947;DHT22;460;48.734;9.152;2023-02-15T08:03:41;1.00;99.90
947;DHT22;460;48.734;9.152;2023-02-15T08:06:10;1.00;99.90
947;DHT22;460;48.734;9.152;2023-02-15T08:08:39;1.10;99.90
947;DHT22;460;48.734;9.152;2023-02-15T08:11:09;1.10;99.90
947;DHT22;460;48.734;9.152;2023-02-15T08:13:55;1.10;99.90
947;DHT22;460;48.734;9.152;2023-02-15T08:16:28;1.10;99.90
947;DHT22;460;48.734;9.152;2023-02-15T08:18:56;1.30;99.90
947;DHT22;460;48.734;9.152;2023-02-15T08:21:24;1.30;99.90
947;DHT22;460;48.734;9.152;2023-02-15T08:23:51;1.40;99.90
947;DHT22;460;48.734;9.152;2023-02-15T08:26:18;1.50;99.90
947;DHT22;460;48.734;9.152;2023-02-15T08:28:45;1.50;99.90
947;DHT22;460;48.734;9.152;2023-02-15T08:31:13;1.70;99.90
947;DHT22;460;48.734;9.152;2023-02-15T08:33:42;1.80;99.90
947;DHT22;460;48.734;9.152;2023-02-15T08:36:14;1.90;99.90
947;DHT22;460;48.734;9.152;2023-02-15T08:38:41;1.90;99.90
947;DHT22;460;48.734;9.152;2023-02-15T08:41:10;2.00;99.90
947;DHT22;460;48.734;9.152;2023-02-15T08:43:37;2.10;99.90
947;DHT22;460;48.734;9.152;2023-02-15T08:46:04;2.20;99.90
947;DHT22;460;48.734;9.152;2023-02-15T08:48:31;2.30;99.90
947;DHT22;460;48.734;9.152;2023-02-15T08:51:03;2.40;99.90
947;DHT22;460;48.734;9.152;2023-02-15T08:53:30;2.50;99.90
947;DHT22;460;48.734;9.152;2023-02-15T08:55:57;2.60;99.90
947;DHT22;460;48.734;9.152;2023-02-15T08:58:24;2.70;99.90
947;DHT22;460;48.734;9.152;2023-02-15T09:00:51;2.60;99.90
947;DHT22;460;48.734;9.152;2023-02-15T09:03:18;2.70;99.90
947;DHT22;460;48.734;9.152;2023-02-15T09:05:45;2.80;99.90
947;DHT22;460;48.734;9.152;2023-02-15T09:08:13;2.90;99.90
947;DHT22;460;48.734;9.152;2023-02-15T09:10:39;3.00;99.90
947;DHT22;460;48.734;9.152;2023-02-15T09:13:06;3.20;99.90
947;DHT22;460;48.734;9.152;2023-02-15T09:15:33;3.30;99.90
947;DHT22;460;48.734;9.152;2023-02-15T09:18:00;3.30;99.90
947;DHT22;460;48.734;9.152;2023-02-15T09:20:31;3.50;99.90
947;DHT22;460;48.734;9.152;2023-02-15T09:22:58;3.60;99.90
947;DHT22;460;48.734;9.152;2023-02-15T09:25:27;3.60;99.90
947;DHT22;460;48.734;9.152;2023-02-15T09:27:54;3.70;99.90
947;DHT22;460;48.734;9.152;2023-02-15T09:30:21;3.90;99.90
947;DHT22;460;48.734;9.152;2023-02-15T09:32:47;4.00;99.90
947;DHT22;460;48.734;9.152;2023-02-15T09:35:14;4.10;99.90
947;DHT22;460;48.734;9.152;2023-02-15T09:37:41;4.20;99.90
947;DHT22;460;48.734;9.152;2023-02-15T09:40:08;4.30;99.90
947;DHT22;460;48.734;9.152;2023-02-15T09:43:00;4.40;99.90
947;DHT22;460;48.734;9.152;2023-02-15T09:45:39;4.50;99.90
947;DHT22;460;48.734;9.152;2023-02-15T09:48:29;4.60;99.90
947;DHT22;460;48.734;9.152;2023-02-15T09:51:09;4.80;99.90
947;DHT22;460;48.734;9.152;2023-02-15T09:53:51;4.90;99.90
947;DHT22;460;48.734;9.152;2023-02-15T09:56:26;4.90;99.90
947;DHT22;460;48.734;9.152;2023-02-15T09:59:02;5.00;99.90
947;DHT22;460;48.734;9.152;2023-02-15T10:01:39;5.00;99.90
947;DHT22;460;48.734;9.152;2023-02-15T10:04:27;5.20;99.90
947;DHT22;460;48.734;9.152;2023-02-15T10:07:05;5.20;99.90
947;DHT22;460;48.734;9.152;2023-02-15T10:09:52;5.30;99.90
947;DHT22;460;48.734;9.152;2023-02-15T10:12:32;5.40;99.90
947;DHT22;460;48.734;9.152;2023-02-15T10:15:21;5.40;99.90
947;DHT22;460;48.734;9.152;2023-02-15T10:18:02;5.60;99.90
947;DHT22;460;48.734;9.152;2023-02-15T10:20:43;5.50;99.50
947;DHT22;460;48.734;9.152;2023-02-15T10:23:47;5.60;99.70
947;DHT22;460;48.734;9.152;2023-02-15T10:26:18;5.60;99.30
947;DHT22;460;48.734;9.152;2023-02-15T10:28:48;5.70;99.40
947;DHT22;460;48.734;9.152;2023-02-15T10:31:23;5.80;99.20
947;DHT22;460;48.734;9.152;2023-02-15T10:34:03;5.80;99.10
947;DHT22;460;48.734;9.152;2023-02-15T10:36:53;5.90;98.80
947;DHT22;460;48.734;9.152;2023-02-15T10:39:29;5.90;96.70
947;DHT22;460;48.734;9.152;2023-02-15T10:42:08;6.20;99.90
947;DHT22;460;48.734;9.152;2023-02-15T10:44:46;6.00;96.60
947;DHT22;460;48.734;9.152;2023-02-15T10:47:37;6.10;97.50
947;DHT22;460;48.734;9.152;2023-02-15T10:50:24;6.20;96.40
947;DHT22;460;48.734;9.152;2023-02-15T10:53:09;6.30;96.10
947;DHT22;460;48.734;9.152;2023-02-15T10:55:48;6.30;96.10
947;DHT22;460;48.734;9.152;2023-02-15T10:58:23;6.40;97.00
947;DHT22;460;48.734;9.152;2023-02-15T11:00:54;6.50;96.90
947;DHT22;460;48.734;9.152;2023-02-15T11:03:50;6.50;97.10
947;DHT22;460;48.734;9.152;2023-02-15T11:06:22;6.50;97.00
947;DHT22;460;48.734;9.152;2023-02-15T11:08:54;6.60;97.00
947;DHT22;460;48.734;9.152;2023-02-15T11:11:23;6.70;96.60
947;DHT22;460;48.734;9.152;2023-02-15T11:13:54;6.70;96.40
947;DHT22;460;48.734;9.152;2023-02-15T11:16:27;6.70;96.40
947;DHT22;460;48.734;9.152;2023-02-15T11:18:59;6.80;96.40
947;DHT22;460;48.734;9.152;2023-02-15T11:21:31;6.80;95.80
947;DHT22;460;48.734;9.152;2023-02-15T11:24:10;6.90;96.20
947;DHT22;460;48.734;9.152;2023-02-15T11:26:41;7.00;95.90
947;DHT22;460;48.734;9.152;2023-02-15T11:29:13;7.10;95.40
947;DHT22;460;48.734;9.152;2023-02-15T11:31:43;7.10;95.50
947;DHT22;460;48.734;9.152;2023-02-15T11:34:18;7.20;96.00
947;DHT22;460;48.734;9.152;2023-02-15T11:36:49;7.40;96.50
947;DHT22;460;48.734;9.152;2023-02-15T11:39:18;7.30;96.10
947;DHT22;460;48.734;9.152;2023-02-15T11:41:49;7.40;94.60
947;DHT22;460;48.734;9.152;2023-02-15T11:44:21;7.50;95.00
947;DHT22;460;48.734;9.152;2023-02-15T11:46:49;7.60;95.50
947;DHT22;460;48.734;9.152;2023-02-15T11:49:29;7.60;95.60
947;DHT22;460;48.734;9.152;2023-02-15T11:51:57;7.70;95.30
947;DHT22;460;48.734;9.152;2023-02-15T11:54:27;7.80;95.70
947;DHT22;460;48.734;9.152;2023-02-15T11:56:56;7.60;99.90
947;DHT22;460;48.734;9.152;2023-02-15T11:59:29;7.80;95.80
947;DHT22;460;48.734;9.152;2023-02-15T12:01:56;7.90;95.00
947;DHT22;460;48.734;9.152;2023-02-15T12:04:28;7.90;95.50
947;DHT22;460;48.734;9.152;2023-02-15T12:06:59;8.00;99.70
947;DHT22;460;48.734;9.152;2023-02-15T12:09:31;7.80;95.30
947;DHT22;460;48.734;9.152;2023-02-15T12:12:21;7.90;95.10
947;DHT22;460;48.734;9.152;2023-02-15T12:14:50;7.90;95.30
947;DHT22;460;48.734;9.152;2023-02-15T12:17:18;8.00;94.80
947;DHT22;460;48.734;9.152;2023-02-15T12:19:48;7.90;95.00
947;DHT22;460;48.734;9.152;2023-02-15T12:22:21;8.00;94.80
947;DHT22;460;48.734;9.152;2023-02-15T12:24:51;7.90;94.70
947;DHT22;460;48.734;9.152;2023-02-15T12:27:20;8.00;94.50
947;DHT22;460;48.734;9.152;2023-02-15T12:29:50;7.90;94.20
947;DHT22;460;48.734;9.152;2023-02-15T12:32:19;8.10;93.50
947;DHT22;460;48.734;9.152;2023-02-15T12:34:51;8.20;93.50
947;DHT22;460;48.734;9.152;2023-02-15T12:37:22;8.30;93.60
947;DHT22;460;48.734;9.152;2023-02-15T12:39:55;8.30;93.40
947;DHT22;460;48.734;9.152;2023-02-15T12:42:23;8.30;93.40
947;DHT22;460;48.734;9.152;2023-02-15T12:44:58;8.20;97.20
947;DHT22;460;48.734;9.152;2023-02-15T12:47:26;8.40;93.20
947;DHT22;460;48.734;9.152;2023-02-15T12:50:11;8.40;93.30
947;DHT22;460;48.734;9.152;2023-02-15T12:52:42;8.40;97.70
947;DHT22;460;48.734;9.152;2023-02-15T12:55:18;8.50;97.20
947;DHT22;460;48.734;9.152;2023-02-15T12:57:45;8.40;93.30
947;DHT22;460;48.734;9.152;2023-02-15T13:00:26;8.30;97.60
947;DHT22;460;48.734;9.152;2023-02-15T13:02:55;8.40;93.00
947;DHT22;460;48.734;9.152;2023-02-15T13:05:29;8.40;93.10
947;DHT22;460;48.734;9.152;2023-02-15T13:07:58;8.50;93.10
947;DHT22;460;48.734;9.152;2023-02-15T13:10:28;8.50;93.10
947;DHT22;460;48.734;9.152;2023-02-15T13:12:57;8.50;92.60
947;DHT22;460;48.734;9.152;2023-02-15T13:15:28;8.50;93.20
947;DHT22;460;48.734;9.152;2023-02-15T13:17:58;8.50;92.60
947;DHT22;460;48.734;9.152;2023-02-15T13:20:27;8.70;92.10
947;DHT22;460;48.734;9.152;2023-02-15T13:22:58;8.60;92.40
947;DHT22;460;48.734;9.152;2023-02-15T13:25:29;8.60;92.30
947;DHT22;460;48.734;9.152;2023-02-15T13:28:01;8.60;92.60
947;DHT22;460;48.734;9.152;2023-02-15T13:30:32;8.70;92.40
947;DHT22;460;48.734;9.152;2023-02-15T13:33:03;8.70;92.50
947;DHT22;460;48.734;9.152;2023-02-15T13:35:38;8.70;92.20
947;DHT22;460;48.734;9.152;2023-02-15T13:38:19;8.90;91.70
947;DHT22;460;48.734;9.152;2023-02-15T13:40:52;8.80;92.10
947;DHT22;460;48.734;9.152;2023-02-15T13:43:30;8.80;96.80
947;DHT22;460;48.734;9.152;2023-02-15T13:46:11;8.70;92.30
947;DHT22;460;48.734;9.152;2023-02-15T13:48:46;8.70;91.90
947;DHT22;460;48.734;9.152;2023-02-15T13:51:21;8.70;92.00
947;DHT22;460;48.734;9.152;2023-02-15T13:56:53;8.70;91.80
947;DHT22;460;48.734;9.152;2023-02-15T13:59:42;8.70;92.10
947;DHT22;460;48.734;9.152;2023-02-15T14:08:04;8.80;92.30
947;DHT22;460;48.734;9.152;2023-02-15T14:10:44;8.80;91.80
947;DHT22;460;48.734;9.152;2023-02-15T14:13:34;8.80;91.80
947;DHT22;460;48.734;9.152;2023-02-15T14:16:10;8.80;91.50
947;DHT22;460;48.734;9.152;2023-02-15T14:18:41;8.80;91.60
947;DHT22;460;48.734;9.152;2023-02-15T14:21:13;8.80;91.50
947;DHT22;460;48.734;9.152;2023-02-15T14:23:56;9.80;92.00
947;DHT22;460;48.734;9.152;2023-02-15T14:26:32;9.00;91.80
947;DHT22;460;48.734;9.152;2023-02-15T14:29:11;9.00;91.40
947;DHT22;460;48.734;9.152;2023-02-15T14:31:44;9.00;91.70
947;DHT22;460;48.734;9.152;2023-02-15T14:34:19;9.00;91.90
947;DHT22;460;48.734;9.152;2023-02-15T14:36:49;9.00;91.70
947;DHT22;460;48.734;9.152;2023-02-15T14:39:26;9.10;91.90
947;DHT22;460;48.734;9.152;2023-02-15T14:42:18;9.10;92.10
947;DHT22;460;48.734;9.152;2023-02-15T14:44:51;9.10;91.90
947;DHT22;460;48.734;9.152;2023-02-15T14:47:21;9.20;91.80
947;DHT22;460;48.734;9.152;2023-02-15T14:49:48;9.30;91.60
947;DHT22;460;48.734;9.152;2023-02-15T14:52:15;9.30;91.70
947;DHT22;460;48.734;9.152;2023-02-15T14:55:02;9.30;92.00
947;DHT22;460;48.734;9.152;2023-02-15T14:57:34;9.30;91.90
947;DHT22;460;48.734;9.152;2023-02-15T15:00:28;9.30;91.90
947;DHT22;460;48.734;9.152;2023-02-15T15:02:55;9.40;92.40
947;DHT22;460;48.734;9.152;2023-02-15T15:05:27;9.40;91.90
947;DHT22;460;48.734;9.152;2023-02-15T15:07:58;9.30;92.60
947;DHT22;460;48.734;9.152;2023-02-15T15:10:39;9.30;92.50
947;DHT22;460;48.734;9.152;2023-02-15T15:16:50;9.30;92.10
947;DHT22;460;48.734;9.152;2023-02-15T15:22:41;9.30;92.10
947;DHT22;460;48.734;9.152;2023-02-15T15:27:55;9.10;91.50
947;DHT22;460;48.734;9.152;2023-02-15T15:37:06;9.00;92.40
947;DHT22;460;48.734;9.152;2023-02-15T15:40:01;9.00;92.70
947;DHT22;460;48.734;9.152;2023-02-15T15:42:51;9.00;92.70
947;DHT22;460;48.734;9.152;2023-02-15T15:45:47;8.90;93.50
947;DHT22;460;48.734;9.152;2023-02-15T15:48:31;9.80;91.50
947;DHT22;460;48.734;9.152;2023-02-15T15:51:02;9.80;91.60
947;DHT22;460;48.734;9.152;2023-02-15T15:53:34;10.00;90.40
947;DHT22;460;48.734;9.152;2023-02-15T15:56:06;9.90;91.10
947;DHT22;460;48.734;9.152;2023-02-15T15:58:48;9.20;93.70
947;DHT22;460;48.734;9.152;2023-02-15T16:02:35;9.30;91.60
947;DHT22;460;48.734;9.152;2023-02-15T16:05:17;9.00;91.70
947;DHT22;460;48.734;9.152;2023-02-15T16:07:48;8.80;91.50
947;DHT22;460;48.734;9.152;2023-02-15T16:10:27;8.70;91.60
947;DHT22;460;48.734;9.152;2023-02-15T16:12:54;8.60;91.90
947;DHT22;460;48.734;9.152;2023-02-15T16:15:24;8.50;92.10
947;DHT22;460;48.734;9.152;2023-02-15T16:17:54;8.40;92.10
947;DHT22;460;48.734;9.152;2023-02-15T16:20:23;8.20;92.50
947;DHT22;460;48.734;9.152;2023-02-15T16:22:57;8.00;92.50
947;DHT22;460;48.734;9.152;2023-02-15T16:25:36;7.70;92.70
947;DHT22;460;48.734;9.152;2023-02-15T16:28:07;7.60;93.40
947;DHT22;460;48.734;9.152;2023-02-15T16:30:35;7.50;93.30
947;DHT22;460;48.734;9.152;2023-02-15T16:33:09;7.40;93.20
947;DHT22;460;48.734;9.152;2023-02-15T16:35:38;7.40;93.50
947;DHT22;460;48.734;9.152;2023-02-15T16:38:09;7.30;93.60
947;DHT22;460;48.734;9.152;2023-02-15T16:40:48;7.30;93.70
947;DHT22;460;48.734;9.152;2023-02-15T16:43:22;7.20;93.70
947;DHT22;460;48.734;9.152;2023-02-15T16:45:50;7.20;94.10
947;DHT22;460;48.734;9.152;2023-02-15T16:48:21;7.10;94.10
947;DHT22;460;48.734;9.152;2023-02-15T16:50:53;7.00;94.40
947;DHT22;460;48.734;9.152;2023-02-15T16:53:23;6.60;96.30
947;DHT22;460;48.734;9.152;2023-02-15T16:55:53;6.60;96.50
947;DHT22;460;48.734;9.152;2023-02-15T16:58:30;6.60;93.90
947;DHT22;460;48.734;9.152;2023-02-15T17:01:00;6.60;94.10
947;DHT22;460;48.734;9.152;2023-02-15T17:03:29;6.50;96.80
947;DHT22;460;48.734;9.152;2023-02-15T17:05:57;6.30;94.00
947;DHT22;460;48.734;9.152;2023-02-15T17:08:28;6.30;94.60
947;DHT22;460;48.734;9.152;2023-02-15T17:11:11;6.20;94.80
947;DHT22;460;48.734;9.152;2023-02-15T17:13:39;6.10;95.10
947;DHT22;460;48.734;9.152;2023-02-15T17:16:26;6.00;99.40
947;DHT22;460;48.734;9.152;2023-02-15T17:18:56;5.90;95.40
947;DHT22;460;48.734;9.152;2023-02-15T17:21:27;5.60;99.90
947;DHT22;460;48.734;9.152;2023-02-15T17:23:58;5.70;95.50
947;DHT22;460;48.734;9.152;2023-02-15T17:26:28;5.30;99.90
947;DHT22;460;48.734;9.152;2023-02-15T17:28:57;5.50;95.80
947;DHT22;460;48.734;9.152;2023-02-15T17:31:25;5.40;95.70
947;DHT22;460;48.734;9.152;2023-02-15T17:33:55;5.40;96.10
947;DHT22;460;48.734;9.152;2023-02-15T17:36:24;5.30;96.10
947;DHT22;460;48.734;9.152;2023-02-15T17:39:04;5.40;98.20
947;DHT22;460;48.734;9.152;2023-02-15T17:41:32;5.20;96.30
947;DHT22;460;48.734;9.152;2023-02-15T17:44:00;5.10;96.30
947;DHT22;460;48.734;9.152;2023-02-15T17:46:30;5.00;99.90
947;DHT22;460;48.734;9.152;2023-02-15T17:49:02;4.90;96.50
947;DHT22;460;48.734;9.152;2023-02-15T17:51:31;4.90;96.60